Xekmatt — OR2473 — position and weather

sailwx.info

Track history (hours):
 
Tides and Currents Weather Stations Pressure Air Temp Water Temp Dewpoint Dewpoint Depression Visibility Wind Speed Wind Dir Waves Ship Positions

Xekmatt

Last reported at 2017-Sep-05 04:57 UTC. Time now 2017-Sep-19 17:06 UTC.
Position N 38°42' W 009°10'.
Warning: this ship's position is 14 days out of date.

Length 14 m.

Type: Sailing vessel. MMSI: 205247310.

Date/timePositionNaut miles runAvg speedWind from/ knotsBaromVisibWave heightAir tempDewpointWater temp
2017-Sep-05 04:57N 38°42' W 009°10'2 4.6
2017-Sep-05 04:28N 38°41' W 009°13'3 6.0
2017-Sep-05 03:58N 38°42' W 009°17'3 6.7
2017-Sep-05 03:29N 38°40' W 009°20'4 8.0
2017-Sep-05 03:00N 38°41' W 009°25'4 7.9
2017-Sep-05 02:30N 38°42' W 009°30'4 8.0
2017-Sep-05 02:01N 38°46' W 009°31'4 7.7
2017-Sep-05 01:31N 38°50' W 009°32'4 7.8
2017-Sep-05 01:00N 38°54' W 009°31'4 7.6
2017-Sep-05 00:30N 38°58' W 009°31'4 7.6
2017-Sep-05 00:00N 39°01' W 009°30'4 7.6
2017-Sep-04 23:30N 39°05' W 009°30'4 7.9
2017-Sep-04 23:00N 39°09' W 009°29'  
2017-Aug-29 10:39N 39°12' W 009°31'1 7.4
2017-Aug-29 10:29N 39°11' W 009°31'3 7.2
2017-Aug-29 10:00N 39°08' W 009°31'4 7.4
2017-Aug-29 09:30N 39°04' W 009°31'4 7.5
2017-Aug-29 09:00N 39°00' W 009°31'4 7.4
2017-Aug-29 08:30N 38°56' W 009°31'4 7.5
2017-Aug-29 08:00N 38°53' W 009°31'4 8.0
2017-Aug-29 07:30N 38°49' W 009°31'4 7.5
2017-Aug-29 07:00N 38°45' W 009°30'3 7.0
2017-Aug-29 06:31N 38°42' W 009°28'2 0.1
2017-Aug-27 16:48N 38°41' W 009°25'0 0.0
2017-Aug-27 16:30N 38°41' W 009°25'0 0.0
2017-Aug-27 16:00N 38°41' W 009°25'0 0.3
2017-Aug-27 15:29N 38°41' W 009°25'3 5.9
2017-Aug-27 15:00N 38°39' W 009°27'1 1.1
2017-Aug-27 14:30N 38°39' W 009°27'1 1.4
2017-Aug-27 14:00N 38°39' W 009°27'1 1.7
2017-Aug-27 13:30N 38°40' W 009°27'0 0.7
2017-Aug-27 12:59N 38°40' W 009°27'0 0.5
2017-Aug-27 12:28N 38°40' W 009°27'0 0.3
2017-Aug-27 12:00N 38°40' W 009°27'2 3.3
2017-Aug-27 11:28N 38°41' W 009°25'0 0.2
2017-Aug-27 10:34N 38°41' W 009°25'0 0.1
2017-Aug-27 10:25N 38°41' W 009°25'1 0.0
2017-Aug-26 16:44N 38°41' W 009°25'0 0.0
2017-Aug-26 16:26N 38°41' W 009°25'1 1.5
2017-Aug-26 16:01N 38°41' W 009°24'4 7.3
2017-Aug-26 15:29N 38°37' W 009°23'4 8.0
2017-Aug-26 15:00N 38°40' W 009°27'3 3.4
2017-Aug-26 14:00N 38°38' W 009°24'4 7.8
2017-Aug-26 13:30N 38°40' W 009°27'4 7.0
2017-Aug-26 13:00N 38°44' W 009°29'4 5.3
2017-Aug-26 12:18N 38°41' W 009°26'1 4.2
2017-Aug-26 11:58N 38°40' W 009°24'0 0.5
2017-Aug-26 11:30N 38°41' W 009°25'1 1.3
2017-Aug-26 10:58N 38°41' W 009°25'0 0.5
2017-Aug-26 10:18N 38°41' W 009°25'0 0.0
2017-Aug-26 09:57N 38°41' W 009°25'  
Track history (hours):
 
Tides and Currents Weather Stations Pressure Air Temp Water Temp Dewpoint Dewpoint Depression Visibility Wind Speed Wind Dir Waves Ship Positions

Xekmatt

Last reported at 2017-Sep-05 04:57 UTC. Time now 2017-Sep-19 17:06 UTC.
Position N 38°42' W 009°10'.
Warning: this ship's position is 14 days out of date.

Length 14 m.

Type: Sailing vessel. MMSI: 205247310.

Date/timePositionNaut miles runAvg speedWind from/ knotsBaromVisibWave heightAir tempDewpointWater temp
2017-Sep-05 04:57N 38°42' W 009°10'2 4.6
2017-Sep-05 04:28N 38°41' W 009°13'3 6.0
2017-Sep-05 03:58N 38°42' W 009°17'3 6.7
2017-Sep-05 03:29N 38°40' W 009°20'4 8.0
2017-Sep-05 03:00N 38°41' W 009°25'4 7.9
2017-Sep-05 02:30N 38°42' W 009°30'4 8.0
2017-Sep-05 02:01N 38°46' W 009°31'4 7.7
2017-Sep-05 01:31N 38°50' W 009°32'4 7.8
2017-Sep-05 01:00N 38°54' W 009°31'4 7.6
2017-Sep-05 00:30N 38°58' W 009°31'4 7.6
2017-Sep-05 00:00N 39°01' W 009°30'4 7.6
2017-Sep-04 23:30N 39°05' W 009°30'4 7.9
2017-Sep-04 23:00N 39°09' W 009°29'  
2017-Aug-29 10:39N 39°12' W 009°31'1 7.4
2017-Aug-29 10:29N 39°11' W 009°31'3 7.2
2017-Aug-29 10:00N 39°08' W 009°31'4 7.4
2017-Aug-29 09:30N 39°04' W 009°31'4 7.5
2017-Aug-29 09:00N 39°00' W 009°31'4 7.4
2017-Aug-29 08:30N 38°56' W 009°31'4 7.5
2017-Aug-29 08:00N 38°53' W 009°31'4 8.0
2017-Aug-29 07:30N 38°49' W 009°31'4 7.5
2017-Aug-29 07:00N 38°45' W 009°30'3 7.0
2017-Aug-29 06:31N 38°42' W 009°28'2 0.1
2017-Aug-27 16:48N 38°41' W 009°25'0 0.0
2017-Aug-27 16:30N 38°41' W 009°25'0 0.0
2017-Aug-27 16:00N 38°41' W 009°25'0 0.3
2017-Aug-27 15:29N 38°41' W 009°25'3 5.9
2017-Aug-27 15:00N 38°39' W 009°27'1 1.1
2017-Aug-27 14:30N 38°39' W 009°27'1 1.4
2017-Aug-27 14:00N 38°39' W 009°27'1 1.7
2017-Aug-27 13:30N 38°40' W 009°27'0 0.7
2017-Aug-27 12:59N 38°40' W 009°27'0 0.5
2017-Aug-27 12:28N 38°40' W 009°27'0 0.3
2017-Aug-27 12:00N 38°40' W 009°27'2 3.3
2017-Aug-27 11:28N 38°41' W 009°25'0 0.2
2017-Aug-27 10:34N 38°41' W 009°25'0 0.1
2017-Aug-27 10:25N 38°41' W 009°25'1 0.0
2017-Aug-26 16:44N 38°41' W 009°25'0 0.0
2017-Aug-26 16:26N 38°41' W 009°25'1 1.5
2017-Aug-26 16:01N 38°41' W 009°24'4 7.3
2017-Aug-26 15:29N 38°37' W 009°23'4 8.0
2017-Aug-26 15:00N 38°40' W 009°27'3 3.4
2017-Aug-26 14:00N 38°38' W 009°24'4 7.8
2017-Aug-26 13:30N 38°40' W 009°27'4 7.0
2017-Aug-26 13:00N 38°44' W 009°29'4 5.3
2017-Aug-26 12:18N 38°41' W 009°26'1 4.2
2017-Aug-26 11:58N 38°40' W 009°24'0 0.5
2017-Aug-26 11:30N 38°41' W 009°25'1 1.3
2017-Aug-26 10:58N 38°41' W 009°25'0 0.5
2017-Aug-26 10:18N 38°41' W 009°25'0 0.0
2017-Aug-26 09:57N 38°41' W 009°25'  

Dump ship's entire track history